sensor_id;sensor_type;location;lat;lon;timestamp;temperature;humidity
50606;DHT22;36557;53.572;10.170;2022-08-07T00:01:09;12.20;99.90
50606;DHT22;36557;53.572;10.170;2022-08-07T00:03:35;12.10;99.90
50606;DHT22;36557;53.572;10.170;2022-08-07T00:06:01;12.10;99.90
50606;DHT22;36557;53.572;10.170;2022-08-07T00:08:27;12.10;99.90
50606;DHT22;36557;53.572;10.170;2022-08-07T00:10:53;12.10;99.90
50606;DHT22;36557;53.572;10.170;2022-08-07T00:13:20;12.00;99.90
50606;DHT22;36557;53.572;10.170;2022-08-07T00:15:48;12.00;99.90
50606;DHT22;36557;53.572;10.170;2022-08-07T00:18:15;12.00;99.90
50606;DHT22;36557;53.572;10.170;2022-08-07T00:20:41;12.00;99.90
50606;DHT22;36557;53.572;10.170;2022-08-07T00:23:07;11.90;99.90
50606;DHT22;36557;53.572;10.170;2022-08-07T00:25:34;11.80;99.90
50606;DHT22;36557;53.572;10.170;2022-08-07T00:28:00;11.70;99.90
50606;DHT22;36557;53.572;10.170;2022-08-07T00:30:26;11.80;99.90
50606;DHT22;36557;53.572;10.170;2022-08-07T00:32:52;11.80;99.90
50606;DHT22;36557;53.572;10.170;2022-08-07T00:35:18;11.80;99.90
50606;DHT22;36557;53.572;10.170;2022-08-07T00:37:44;11.90;99.90
50606;DHT22;36557;53.572;10.170;2022-08-07T00:40:11;11.80;99.90
50606;DHT22;36557;53.572;10.170;2022-08-07T00:42:37;11.80;99.90
50606;DHT22;36557;53.572;10.170;2022-08-07T00:45:04;11.80;99.90
50606;DHT22;36557;53.572;10.170;2022-08-07T00:47:30;11.70;99.90
50606;DHT22;36557;53.572;10.170;2022-08-07T00:49:56;11.70;99.90
50606;DHT22;36557;53.572;10.170;2022-08-07T00:52:22;11.60;99.90
50606;DHT22;36557;53.572;10.170;2022-08-07T00:54:48;11.70;99.90
50606;DHT22;36557;53.572;10.170;2022-08-07T00:57:15;11.70;99.90
50606;DHT22;36557;53.572;10.170;2022-08-07T00:59:42;11.70;99.90
50606;DHT22;36557;53.572;10.170;2022-08-07T01:02:08;11.60;99.90
50606;DHT22;36557;53.572;10.170;2022-08-07T01:04:34;11.50;99.90
50606;DHT22;36557;53.572;10.170;2022-08-07T01:07:00;11.40;99.90
50606;DHT22;36557;53.572;10.170;2022-08-07T01:09:26;11.40;99.90
50606;DHT22;36557;53.572;10.170;2022-08-07T01:11:53;11.40;99.90
50606;DHT22;36557;53.572;10.170;2022-08-07T01:14:20;11.40;99.90
50606;DHT22;36557;53.572;10.170;2022-08-07T01:16:46;11.30;99.90
50606;DHT22;36557;53.572;10.170;2022-08-07T01:19:13;11.30;99.90
50606;DHT22;36557;53.572;10.170;2022-08-07T01:21:39;11.30;99.90
50606;DHT22;36557;53.572;10.170;2022-08-07T01:24:06;11.30;99.90
50606;DHT22;36557;53.572;10.170;2022-08-07T01:26:33;11.20;99.90
50606;DHT22;36557;53.572;10.170;2022-08-07T01:28:59;11.10;99.90
50606;DHT22;36557;53.572;10.170;2022-08-07T01:31:25;11.10;99.90
50606;DHT22;36557;53.572;10.170;2022-08-07T01:33:59;11.10;99.90
50606;DHT22;36557;53.572;10.170;2022-08-07T01:36:26;11.00;99.90
50606;DHT22;36557;53.572;10.170;2022-08-07T01:38:54;11.00;99.90
50606;DHT22;36557;53.572;10.170;2022-08-07T01:41:20;11.10;99.90
50606;DHT22;36557;53.572;10.170;2022-08-07T01:43:47;11.10;99.90
50606;DHT22;36557;53.572;10.170;2022-08-07T01:46:14;11.10;99.90
50606;DHT22;36557;53.572;10.170;2022-08-07T01:48:43;11.00;99.90
50606;DHT22;36557;53.572;10.170;2022-08-07T01:51:16;10.90;99.90
50606;DHT22;36557;53.572;10.170;2022-08-07T01:53:49;10.90;99.90
50606;DHT22;36557;53.572;10.170;2022-08-07T01:56:21;10.90;99.90
50606;DHT22;36557;53.572;10.170;2022-08-07T01:58:51;10.80;99.90
50606;DHT22;36557;53.572;10.170;2022-08-07T02:01:27;10.80;99.90
50606;DHT22;36557;53.572;10.170;2022-08-07T02:04:23;10.80;99.90
50606;DHT22;36557;53.572;10.170;2022-08-07T02:06:51;10.80;99.90
50606;DHT22;36557;53.572;10.170;2022-08-07T02:09:19;10.80;99.90
50606;DHT22;36557;53.572;10.170;2022-08-07T02:11:48;10.80;99.90
50606;DHT22;36557;53.572;10.170;2022-08-07T02:14:16;10.60;99.90
50606;DHT22;36557;53.572;10.170;2022-08-07T02:16:44;10.70;99.90
50606;DHT22;36557;53.572;10.170;2022-08-07T02:19:12;10.70;99.90
50606;DHT22;36557;53.572;10.170;2022-08-07T02:21:40;10.70;99.90
50606;DHT22;36557;53.572;10.170;2022-08-07T02:24:07;10.50;99.90
50606;DHT22;36557;53.572;10.170;2022-08-07T02:26:35;10.50;99.90
50606;DHT22;36557;53.572;10.170;2022-08-07T02:29:05;10.50;99.90
50606;DHT22;36557;53.572;10.170;2022-08-07T02:31:31;10.60;99.90
50606;DHT22;36557;53.572;10.170;2022-08-07T02:34:01;10.60;99.90
50606;DHT22;36557;53.572;10.170;2022-08-07T02:36:28;10.60;99.90
50606;DHT22;36557;53.572;10.170;2022-08-07T02:38:56;10.60;99.90
50606;DHT22;36557;53.572;10.170;2022-08-07T02:41:22;10.50;99.90
50606;DHT22;36557;53.572;10.170;2022-08-07T02:43:50;10.40;99.90
50606;DHT22;36557;53.572;10.170;2022-08-07T02:46:18;10.50;99.90
50606;DHT22;36557;53.572;10.170;2022-08-07T02:48:45;10.40;99.90
50606;DHT22;36557;53.572;10.170;2022-08-07T02:51:14;10.40;99.90
50606;DHT22;36557;53.572;10.170;2022-08-07T02:53:42;10.40;99.90
50606;DHT22;36557;53.572;10.170;2022-08-07T02:56:12;10.40;99.90
50606;DHT22;36557;53.572;10.170;2022-08-07T02:58:41;10.30;99.90
50606;DHT22;36557;53.572;10.170;2022-08-07T03:01:09;10.20;99.90
50606;DHT22;36557;53.572;10.170;2022-08-07T03:03:37;10.20;99.90
50606;DHT22;36557;53.572;10.170;2022-08-07T03:06:03;10.20;99.90
50606;DHT22;36557;53.572;10.170;2022-08-07T03:08:30;10.30;99.90
50606;DHT22;36557;53.572;10.170;2022-08-07T03:10:56;10.30;99.90
50606;DHT22;36557;53.572;10.170;2022-08-07T03:13:23;10.30;99.90
50606;DHT22;36557;53.572;10.170;2022-08-07T03:15:49;10.30;99.90
50606;DHT22;36557;53.572;10.170;2022-08-07T03:18:16;10.30;99.90
50606;DHT22;36557;53.572;10.170;2022-08-07T03:20:42;10.30;99.90
50606;DHT22;36557;53.572;10.170;2022-08-07T03:23:08;10.30;99.90
50606;DHT22;36557;53.572;10.170;2022-08-07T03:25:38;10.20;99.90
50606;DHT22;36557;53.572;10.170;2022-08-07T03:28:08;10.20;99.90
50606;DHT22;36557;53.572;10.170;2022-08-07T03:30:35;10.20;99.90
50606;DHT22;36557;53.572;10.170;2022-08-07T03:33:02;10.20;99.90
50606;DHT22;36557;53.572;10.170;2022-08-07T03:35:29;10.20;99.90
50606;DHT22;36557;53.572;10.170;2022-08-07T03:37:58;10.20;99.90
50606;DHT22;36557;53.572;10.170;2022-08-07T03:40:27;10.10;99.90
50606;DHT22;36557;53.572;10.170;2022-08-07T03:42:53;10.10;99.90
50606;DHT22;36557;53.572;10.170;2022-08-07T03:45:21;10.20;99.90
50606;DHT22;36557;53.572;10.170;2022-08-07T03:47:48;10.10;99.90
50606;DHT22;36557;53.572;10.170;2022-08-07T03:50:14;10.10;99.90
50606;DHT22;36557;53.572;10.170;2022-08-07T03:52:42;10.10;99.90
50606;DHT22;36557;53.572;10.170;2022-08-07T03:55:09;10.10;99.90
50606;DHT22;36557;53.572;10.170;2022-08-07T03:57:35;10.00;99.90
50606;DHT22;36557;53.572;10.170;2022-08-07T04:00:02;10.00;99.90
50606;DHT22;36557;53.572;10.170;2022-08-07T04:02:28;10.00;99.90
50606;DHT22;36557;53.572;10.170;2022-08-07T04:04:54;10.00;99.90
50606;DHT22;36557;53.572;10.170;2022-08-07T04:07:21;10.10;99.90
50606;DHT22;36557;53.572;10.170;2022-08-07T04:09:48;10.10;99.90
50606;DHT22;36557;53.572;10.170;2022-08-07T04:12:15;10.10;99.90
50606;DHT22;36557;53.572;10.170;2022-08-07T04:14:42;10.10;99.90
50606;DHT22;36557;53.572;10.170;2022-08-07T04:17:08;10.20;99.90
50606;DHT22;36557;53.572;10.170;2022-08-07T04:19:34;10.20;99.90
50606;DHT22;36557;53.572;10.170;2022-08-07T04:22:01;10.30;99.90
50606;DHT22;36557;53.572;10.170;2022-08-07T04:24:27;10.30;99.90
50606;DHT22;36557;53.572;10.170;2022-08-07T04:26:53;10.30;99.90
50606;DHT22;36557;53.572;10.170;2022-08-07T04:29:19;10.30;99.90
50606;DHT22;36557;53.572;10.170;2022-08-07T04:31:45;10.40;99.90
50606;DHT22;36557;53.572;10.170;2022-08-07T04:34:11;10.40;99.90
50606;DHT22;36557;53.572;10.170;2022-08-07T04:36:39;10.50;99.90
50606;DHT22;36557;53.572;10.170;2022-08-07T04:39:05;10.60;99.90
50606;DHT22;36557;53.572;10.170;2022-08-07T04:41:31;10.70;99.90
50606;DHT22;36557;53.572;10.170;2022-08-07T04:43:57;10.80;99.90
50606;DHT22;36557;53.572;10.170;2022-08-07T04:46:46;11.10;99.90
50606;DHT22;36557;53.572;10.170;2022-08-07T04:49:34;11.40;99.90
50606;DHT22;36557;53.572;10.170;2022-08-07T04:52:19;11.80;99.90
50606;DHT22;36557;53.572;10.170;2022-08-07T04:54:58;12.10;99.90
50606;DHT22;36557;53.572;10.170;2022-08-07T04:57:54;12.50;99.90
50606;DHT22;36557;53.572;10.170;2022-08-07T05:03:19;13.00;99.90
50606;DHT22;36557;53.572;10.170;2022-08-07T05:05:53;13.30;99.90
50606;DHT22;36557;53.572;10.170;2022-08-07T05:08:43;13.50;99.90
50606;DHT22;36557;53.572;10.170;2022-08-07T05:11:18;13.80;99.90
50606;DHT22;36557;53.572;10.170;2022-08-07T05:14:10;14.00;99.90
50606;DHT22;36557;53.572;10.170;2022-08-07T05:16:37;14.30;99.90
50606;DHT22;36557;53.572;10.170;2022-08-07T05:19:12;14.50;99.90
50606;DHT22;36557;53.572;10.170;2022-08-07T05:21:43;14.60;99.90
50606;DHT22;36557;53.572;10.170;2022-08-07T05:24:15;14.90;99.90
50606;DHT22;36557;53.572;10.170;2022-08-07T05:26:47;15.10;99.90
50606;DHT22;36557;53.572;10.170;2022-08-07T05:29:15;15.20;99.90
50606;DHT22;36557;53.572;10.170;2022-08-07T05:31:43;15.40;99.90
50606;DHT22;36557;53.572;10.170;2022-08-07T05:34:11;15.60;99.90
50606;DHT22;36557;53.572;10.170;2022-08-07T05:36:41;15.80;99.90
50606;DHT22;36557;53.572;10.170;2022-08-07T05:39:07;15.90;99.90
50606;DHT22;36557;53.572;10.170;2022-08-07T05:41:33;16.10;99.90
50606;DHT22;36557;53.572;10.170;2022-08-07T05:43:59;16.20;99.90
50606;DHT22;36557;53.572;10.170;2022-08-07T05:46:26;16.30;99.90
50606;DHT22;36557;53.572;10.170;2022-08-07T05:48:52;16.10;99.90
50606;DHT22;36557;53.572;10.170;2022-08-07T05:51:19;16.20;99.90
50606;DHT22;36557;53.572;10.170;2022-08-07T05:53:45;16.50;99.90
50606;DHT22;36557;53.572;10.170;2022-08-07T05:56:12;16.70;99.90
50606;DHT22;36557;53.572;10.170;2022-08-07T05:58:40;16.80;99.90
50606;DHT22;36557;53.572;10.170;2022-08-07T06:01:09;16.60;99.90
50606;DHT22;36557;53.572;10.170;2022-08-07T06:03:37;16.70;99.90
50606;DHT22;36557;53.572;10.170;2022-08-07T06:06:04;17.10;99.90
50606;DHT22;36557;53.572;10.170;2022-08-07T06:08:31;17.10;99.90
50606;DHT22;36557;53.572;10.170;2022-08-07T06:10:58;17.40;99.90
50606;DHT22;36557;53.572;10.170;2022-08-07T06:13:24;17.10;99.90
50606;DHT22;36557;53.572;10.170;2022-08-07T06:15:51;17.30;99.90
50606;DHT22;36557;53.572;10.170;2022-08-07T06:18:19;17.30;99.90
50606;DHT22;36557;53.572;10.170;2022-08-07T06:20:46;17.40;99.90
50606;DHT22;36557;53.572;10.170;2022-08-07T06:23:12;17.60;99.90
50606;DHT22;36557;53.572;10.170;2022-08-07T06:25:39;17.90;99.90
50606;DHT22;36557;53.572;10.170;2022-08-07T06:28:08;17.80;99.90
50606;DHT22;36557;53.572;10.170;2022-08-07T06:30:38;17.70;99.90
50606;DHT22;36557;53.572;10.170;2022-08-07T06:33:05;18.00;99.90
50606;DHT22;36557;53.572;10.170;2022-08-07T06:35:31;18.30;99.90
50606;DHT22;36557;53.572;10.170;2022-08-07T06:37:59;18.30;99.90
50606;DHT22;36557;53.572;10.170;2022-08-07T06:40:24;18.00;99.90
50606;DHT22;36557;53.572;10.170;2022-08-07T06:42:51;17.80;99.90
50606;DHT22;36557;53.572;10.170;2022-08-07T06:45:19;17.60;99.90
50606;DHT22;36557;53.572;10.170;2022-08-07T06:47:46;17.80;99.90
50606;DHT22;36557;53.572;10.170;2022-08-07T06:50:12;18.00;99.90
50606;DHT22;36557;53.572;10.170;2022-08-07T06:52:41;18.40;99.90
50606;DHT22;36557;53.572;10.170;2022-08-07T06:55:36;18.80;99.90
50606;DHT22;36557;53.572;10.170;2022-08-07T06:58:03;19.30;99.90
50606;DHT22;36557;53.572;10.170;2022-08-07T07:00:33;19.50;99.90
50606;DHT22;36557;53.572;10.170;2022-08-07T07:03:02;19.30;99.90
50606;DHT22;36557;53.572;10.170;2022-08-07T07:05:28;19.20;99.90
50606;DHT22;36557;53.572;10.170;2022-08-07T07:07:54;19.50;99.90
50606;DHT22;36557;53.572;10.170;2022-08-07T07:10:31;19.70;99.90
50606;DHT22;36557;53.572;10.170;2022-08-07T07:13:05;19.70;99.90
50606;DHT22;36557;53.572;10.170;2022-08-07T07:15:36;19.90;99.90
50606;DHT22;36557;53.572;10.170;2022-08-07T07:18:23;19.70;99.90
50606;DHT22;36557;53.572;10.170;2022-08-07T07:20:52;19.50;99.90
50606;DHT22;36557;53.572;10.170;2022-08-07T07:23:19;19.90;99.90
50606;DHT22;36557;53.572;10.170;2022-08-07T07:25:47;20.00;99.90
50606;DHT22;36557;53.572;10.170;2022-08-07T07:28:21;19.90;99.90
50606;DHT22;36557;53.572;10.170;2022-08-07T07:31:03;20.10;99.90
50606;DHT22;36557;53.572;10.170;2022-08-07T07:33:32;20.20;99.90
50606;DHT22;36557;53.572;10.170;2022-08-07T07:35:59;20.10;99.40
50606;DHT22;36557;53.572;10.170;2022-08-07T07:38:26;20.00;99.90
50606;DHT22;36557;53.572;10.170;2022-08-07T07:40:59;19.90;99.90
50606;DHT22;36557;53.572;10.170;2022-08-07T07:43:26;20.20;99.90
50606;DHT22;36557;53.572;10.170;2022-08-07T07:45:53;21.00;99.90
50606;DHT22;36557;53.572;10.170;2022-08-07T07:48:20;21.20;99.30
50606;DHT22;36557;53.572;10.170;2022-08-07T07:50:48;21.10;98.80
50606;DHT22;36557;53.572;10.170;2022-08-07T07:53:17;21.30;98.20
50606;DHT22;36557;53.572;10.170;2022-08-07T07:55:44;21.20;99.10
50606;DHT22;36557;53.572;10.170;2022-08-07T07:58:10;21.60;97.30
50606;DHT22;36557;53.572;10.170;2022-08-07T08:00:38;20.60;98.40
50606;DHT22;36557;53.572;10.170;2022-08-07T08:03:07;20.80;98.20
50606;DHT22;36557;53.572;10.170;2022-08-07T08:05:41;20.60;98.10
50606;DHT22;36557;53.572;10.170;2022-08-07T08:08:09;20.50;98.70
50606;DHT22;36557;53.572;10.170;2022-08-07T08:10:36;20.70;99.40
50606;DHT22;36557;53.572;10.170;2022-08-07T08:13:03;20.80;98.30
50606;DHT22;36557;53.572;10.170;2022-08-07T08:15:35;21.00;98.20
50606;DHT22;36557;53.572;10.170;2022-08-07T08:18:02;21.10;98.90
50606;DHT22;36557;53.572;10.170;2022-08-07T08:20:32;21.30;97.20
50606;DHT22;36557;53.572;10.170;2022-08-07T08:22:59;21.20;97.30
50606;DHT22;36557;53.572;10.170;2022-08-07T08:25:45;22.70;97.60
50606;DHT22;36557;53.572;10.170;2022-08-07T08:28:31;22.50;94.70
50606;DHT22;36557;53.572;10.170;2022-08-07T08:31:03;22.60;95.00
50606;DHT22;36557;53.572;10.170;2022-08-07T08:33:33;20.70;95.50
50606;DHT22;36557;53.572;10.170;2022-08-07T08:36:00;21.30;96.60
50606;DHT22;36557;53.572;10.170;2022-08-07T08:38:31;22.40;96.10
50606;DHT22;36557;53.572;10.170;2022-08-07T08:41:07;22.20;95.00
50606;DHT22;36557;53.572;10.170;2022-08-07T08:43:48;22.60;94.10
50606;DHT22;36557;53.572;10.170;2022-08-07T08:46:23;22.40;95.20
50606;DHT22;36557;53.572;10.170;2022-08-07T08:49:15;22.30;94.00
50606;DHT22;36557;53.572;10.170;2022-08-07T08:55:02;22.60;94.80
50606;DHT22;36557;53.572;10.170;2022-08-07T08:57:51;22.80;92.30
50606;DHT22;36557;53.572;10.170;2022-08-07T09:00:21;21.90;91.20
50606;DHT22;36557;53.572;10.170;2022-08-07T09:03:01;22.90;93.70
50606;DHT22;36557;53.572;10.170;2022-08-07T09:05:47;23.60;92.40
50606;DHT22;36557;53.572;10.170;2022-08-07T09:08:48;24.20;90.80
50606;DHT22;36557;53.572;10.170;2022-08-07T09:16:40;23.30;91.10
50606;DHT22;36557;53.572;10.170;2022-08-07T09:22:33;24.40;90.80
50606;DHT22;36557;53.572;10.170;2022-08-07T09:25:08;23.80;85.60
50606;DHT22;36557;53.572;10.170;2022-08-07T09:28:04;23.80;88.80
50606;DHT22;36557;53.572;10.170;2022-08-07T09:31:05;23.90;91.00
50606;DHT22;36557;53.572;10.170;2022-08-07T09:36:02;24.20;83.10
50606;DHT22;36557;53.572;10.170;2022-08-07T09:44:39;22.30;92.10
50606;DHT22;36557;53.572;10.170;2022-08-07T09:52:42;24.50;86.80
50606;DHT22;36557;53.572;10.170;2022-08-07T09:55:21;24.70;83.70
50606;DHT22;36557;53.572;10.170;2022-08-07T09:58:28;25.40;83.10
50606;DHT22;36557;53.572;10.170;2022-08-07T10:07:01;25.50;80.40
50606;DHT22;36557;53.572;10.170;2022-08-07T10:15:30;24.50;83.60
50606;DHT22;36557;53.572;10.170;2022-08-07T10:21:40;25.30;80.10
50606;DHT22;36557;53.572;10.170;2022-08-07T10:24:01;25.50;78.20
50606;DHT22;36557;53.572;10.170;2022-08-07T10:29:38;25.70;77.00
50606;DHT22;36557;53.572;10.170;2022-08-07T10:38:36;24.60;80.40
50606;DHT22;36557;53.572;10.170;2022-08-07T10:41:06;25.00;76.90
50606;DHT22;36557;53.572;10.170;2022-08-07T10:43:38;25.30;75.10
50606;DHT22;36557;53.572;10.170;2022-08-07T10:46:29;24.60;75.70
50606;DHT22;36557;53.572;10.170;2022-08-07T10:49:14;22.90;79.90
50606;DHT22;36557;53.572;10.170;2022-08-07T10:52:01;23.50;81.60
50606;DHT22;36557;53.572;10.170;2022-08-07T10:54:41;24.50;75.60
50606;DHT22;36557;53.572;10.170;2022-08-07T10:57:18;25.80;74.10
50606;DHT22;36557;53.572;10.170;2022-08-07T11:08:19;23.70;82.00
50606;DHT22;36557;53.572;10.170;2022-08-07T11:10:56;23.60;79.80
50606;DHT22;36557;53.572;10.170;2022-08-07T11:13:44;24.90;77.50
50606;DHT22;36557;53.572;10.170;2022-08-07T11:18:55;25.00;80.30
50606;DHT22;36557;53.572;10.170;2022-08-07T11:21:45;25.20;76.50
50606;DHT22;36557;53.572;10.170;2022-08-07T11:30:00;26.30;72.30
50606;DHT22;36557;53.572;10.170;2022-08-07T11:35:09;26.50;69.90
50606;DHT22;36557;53.572;10.170;2022-08-07T11:38:03;27.80;70.90
50606;DHT22;36557;53.572;10.170;2022-08-07T11:40:48;28.10;69.30
50606;DHT22;36557;53.572;10.170;2022-08-07T11:46:10;26.60;73.30
50606;DHT22;36557;53.572;10.170;2022-08-07T11:49:04;26.50;68.30
50606;DHT22;36557;53.572;10.170;2022-08-07T12:05:25;26.20;63.90
50606;DHT22;36557;53.572;10.170;2022-08-07T12:08:01;26.40;68.80
50606;DHT22;36557;53.572;10.170;2022-08-07T12:10:34;26.40;66.70
50606;DHT22;36557;53.572;10.170;2022-08-07T12:16:01;25.00;70.70
50606;DHT22;36557;53.572;10.170;2022-08-07T12:27:55;24.00;71.90
50606;DHT22;36557;53.572;10.170;2022-08-07T12:30:28;24.50;70.00
50606;DHT22;36557;53.572;10.170;2022-08-07T12:33:04;24.30;71.60
50606;DHT22;36557;53.572;10.170;2022-08-07T12:35:33;24.10;73.80
50606;DHT22;36557;53.572;10.170;2022-08-07T12:37:59;22.60;73.60
50606;DHT22;36557;53.572;10.170;2022-08-07T12:40:32;22.50;74.80
50606;DHT22;36557;53.572;10.170;2022-08-07T12:43:02;22.40;77.10
50606;DHT22;36557;53.572;10.170;2022-08-07T12:45:36;25.30;76.30
50606;DHT22;36557;53.572;10.170;2022-08-07T12:48:17;25.60;69.00
50606;DHT22;36557;53.572;10.170;2022-08-07T12:50:58;24.70;69.40
50606;DHT22;36557;53.572;10.170;2022-08-07T12:53:34;24.20;73.10
50606;DHT22;36557;53.572;10.170;2022-08-07T12:56:25;23.90;73.60
50606;DHT22;36557;53.572;10.170;2022-08-07T12:58:53;25.60;75.10
50606;DHT22;36557;53.572;10.170;2022-08-07T13:06:41;27.70;68.80
50606;DHT22;36557;53.572;10.170;2022-08-07T13:09:33;25.80;67.60
50606;DHT22;36557;53.572;10.170;2022-08-07T13:12:29;24.30;70.80
50606;DHT22;36557;53.572;10.170;2022-08-07T13:20:44;23.20;70.80
50606;DHT22;36557;53.572;10.170;2022-08-07T13:23:19;23.20;74.50
50606;DHT22;36557;53.572;10.170;2022-08-07T13:26:25;24.00;70.70
50606;DHT22;36557;53.572;10.170;2022-08-07T13:29:11;23.30;75.10
50606;DHT22;36557;53.572;10.170;2022-08-07T13:31:51;23.40;73.70
50606;DHT22;36557;53.572;10.170;2022-08-07T13:40:04;25.70;73.70
50606;DHT22;36557;53.572;10.170;2022-08-07T13:42:32;26.40;71.40
50606;DHT22;36557;53.572;10.170;2022-08-07T13:45:02;28.10;68.60
50606;DHT22;36557;53.572;10.170;2022-08-07T13:47:29;26.60;67.90
50606;DHT22;36557;53.572;10.170;2022-08-07T13:49:58;26.30;66.50
50606;DHT22;36557;53.572;10.170;2022-08-07T13:52:25;25.60;70.80
50606;DHT22;36557;53.572;10.170;2022-08-07T13:54:54;24.70;72.20
50606;DHT22;36557;53.572;10.170;2022-08-07T13:57:24;26.30;68.40
50606;DHT22;36557;53.572;10.170;2022-08-07T13:59:52;26.40;70.50
50606;DHT22;36557;53.572;10.170;2022-08-07T14:02:26;25.50;71.00
50606;DHT22;36557;53.572;10.170;2022-08-07T14:04:56;23.60;69.60
50606;DHT22;36557;53.572;10.170;2022-08-07T14:07:27;23.30;70.00
50606;DHT22;36557;53.572;10.170;2022-08-07T14:09:57;24.80;73.30
50606;DHT22;36557;53.572;10.170;2022-08-07T14:12:45;25.20;74.50
50606;DHT22;36557;53.572;10.170;2022-08-07T14:17:56;26.50;70.10
50606;DHT22;36557;53.572;10.170;2022-08-07T14:20:28;26.50;68.00
50606;DHT22;36557;53.572;10.170;2022-08-07T14:23:06;25.80;68.30
50606;DHT22;36557;53.572;10.170;2022-08-07T14:25:34;26.70;71.20
50606;DHT22;36557;53.572;10.170;2022-08-07T14:28:06;27.90;68.30
50606;DHT22;36557;53.572;10.170;2022-08-07T14:30:35;27.60;68.50
50606;DHT22;36557;53.572;10.170;2022-08-07T14:33:02;26.70;66.70
50606;DHT22;36557;53.572;10.170;2022-08-07T14:35:35;28.10;68.50
50606;DHT22;36557;53.572;10.170;2022-08-07T14:38:01;28.20;62.90
50606;DHT22;36557;53.572;10.170;2022-08-07T14:40:29;27.10;61.80
50606;DHT22;36557;53.572;10.170;2022-08-07T14:43:08;26.10;68.90
50606;DHT22;36557;53.572;10.170;2022-08-07T14:45:49;26.60;64.00
50606;DHT22;36557;53.572;10.170;2022-08-07T14:48:19;25.50;67.70
50606;DHT22;36557;53.572;10.170;2022-08-07T14:50:50;26.60;65.60
50606;DHT22;36557;53.572;10.170;2022-08-07T14:53:18;25.40;63.20
50606;DHT22;36557;53.572;10.170;2022-08-07T14:55:45;27.00;65.20
50606;DHT22;36557;53.572;10.170;2022-08-07T14:58:13;27.10;67.10
50606;DHT22;36557;53.572;10.170;2022-08-07T15:00:42;27.70;64.90
50606;DHT22;36557;53.572;10.170;2022-08-07T15:03:09;26.10;61.60
50606;DHT22;36557;53.572;10.170;2022-08-07T15:05:37;26.60;67.70
50606;DHT22;36557;53.572;10.170;2022-08-07T15:08:06;26.50;65.60
50606;DHT22;36557;53.572;10.170;2022-08-07T15:10:34;26.20;64.60
50606;DHT22;36557;53.572;10.170;2022-08-07T15:13:04;23.70;64.20
50606;DHT22;36557;53.572;10.170;2022-08-07T15:15:36;24.40;68.80
50606;DHT22;36557;53.572;10.170;2022-08-07T15:18:07;23.70;67.00
50606;DHT22;36557;53.572;10.170;2022-08-07T15:20:36;24.00;70.70
50606;DHT22;36557;53.572;10.170;2022-08-07T15:25:34;23.40;69.50
50606;DHT22;36557;53.572;10.170;2022-08-07T15:28:04;24.50;71.40
50606;DHT22;36557;53.572;10.170;2022-08-07T15:30:32;23.50;67.70
50606;DHT22;36557;53.572;10.170;2022-08-07T15:32:59;23.50;70.20
50606;DHT22;36557;53.572;10.170;2022-08-07T15:35:27;23.90;69.20
50606;DHT22;36557;53.572;10.170;2022-08-07T15:37:57;23.60;70.40
50606;DHT22;36557;53.572;10.170;2022-08-07T15:40:27;23.60;72.00
50606;DHT22;36557;53.572;10.170;2022-08-07T15:42:54;24.00;72.40
50606;DHT22;36557;53.572;10.170;2022-08-07T15:45:33;24.10;71.20
50606;DHT22;36557;53.572;10.170;2022-08-07T15:48:12;24.10;70.30
50606;DHT22;36557;53.572;10.170;2022-08-07T15:50:44;23.60;68.90
50606;DHT22;36557;53.572;10.170;2022-08-07T15:53:37;23.40;73.70
50606;DHT22;36557;53.572;10.170;2022-08-07T15:56:04;23.00;71.10
50606;DHT22;36557;53.572;10.170;2022-08-07T16:01:21;22.60;73.20
50606;DHT22;36557;53.572;10.170;2022-08-07T16:03:51;22.50;75.30
50606;DHT22;36557;53.572;10.170;2022-08-07T16:06:36;22.60;73.20
50606;DHT22;36557;53.572;10.170;2022-08-07T16:09:11;22.10;73.80
50606;DHT22;36557;53.572;10.170;2022-08-07T16:28:41;22.30;73.60
50606;DHT22;36557;53.572;10.170;2022-08-07T16:31:16;22.00;73.90
50606;DHT22;36557;53.572;10.170;2022-08-07T16:33:46;21.90;73.10
50606;DHT22;36557;53.572;10.170;2022-08-07T16:47:42;21.80;78.20
50606;DHT22;36557;53.572;10.170;2022-08-07T16:56:31;21.70;76.70
50606;DHT22;36557;53.572;10.170;2022-08-07T16:59:06;21.70;77.40
50606;DHT22;36557;53.572;10.170;2022-08-07T17:09:49;21.50;78.10
50606;DHT22;36557;53.572;10.170;2022-08-07T17:12:23;21.50;77.80
50606;DHT22;36557;53.572;10.170;2022-08-07T17:14:57;21.40;78.10
50606;DHT22;36557;53.572;10.170;2022-08-07T17:17:36;21.40;77.20
50606;DHT22;36557;53.572;10.170;2022-08-07T17:20:12;21.30;78.10
50606;DHT22;36557;53.572;10.170;2022-08-07T17:25:49;21.10;79.10
50606;DHT22;36557;53.572;10.170;2022-08-07T17:28:23;21.10;79.80
50606;DHT22;36557;53.572;10.170;2022-08-07T17:31:04;21.10;78.70
50606;DHT22;36557;53.572;10.170;2022-08-07T17:33:36;21.10;79.90
50606;DHT22;36557;53.572;10.170;2022-08-07T17:39:48;21.10;80.10
50606;DHT22;36557;53.572;10.170;2022-08-07T17:42:00;21.00;80.30
50606;DHT22;36557;53.572;10.170;2022-08-07T17:44:46;21.10;82.00
50606;DHT22;36557;53.572;10.170;2022-08-07T17:47:21;21.00;81.80
50606;DHT22;36557;53.572;10.170;2022-08-07T17:49:55;20.90;82.10
50606;DHT22;36557;53.572;10.170;2022-08-07T17:52:55;20.80;82.50
50606;DHT22;36557;53.572;10.170;2022-08-07T17:55:34;20.70;82.30
50606;DHT22;36557;53.572;10.170;2022-08-07T17:58:07;20.60;82.90
50606;DHT22;36557;53.572;10.170;2022-08-07T18:00:38;20.50;82.70
50606;DHT22;36557;53.572;10.170;2022-08-07T18:03:12;20.40;85.10
50606;DHT22;36557;53.572;10.170;2022-08-07T18:06:12;20.30;84.50
50606;DHT22;36557;53.572;10.170;2022-08-07T18:11:22;20.30;84.50
50606;DHT22;36557;53.572;10.170;2022-08-07T18:13:58;20.20;86.20
50606;DHT22;36557;53.572;10.170;2022-08-07T18:18:54;20.10;87.50
50606;DHT22;36557;53.572;10.170;2022-08-07T18:21:31;20.00;88.80
50606;DHT22;36557;53.572;10.170;2022-08-07T18:41:21;20.00;91.20
50606;DHT22;36557;53.572;10.170;2022-08-07T18:44:21;19.90;91.80
50606;DHT22;36557;53.572;10.170;2022-08-07T18:58:34;19.20;93.40
50606;DHT22;36557;53.572;10.170;2022-08-07T19:06:51;19.00;94.00
50606;DHT22;36557;53.572;10.170;2022-08-07T19:09:41;18.90;94.30
50606;DHT22;36557;53.572;10.170;2022-08-07T19:14:51;18.80;94.90
50606;DHT22;36557;53.572;10.170;2022-08-07T19:17:41;18.80;95.10
50606;DHT22;36557;53.572;10.170;2022-08-07T19:20:17;18.70;95.90
50606;DHT22;36557;53.572;10.170;2022-08-07T19:23:00;18.60;95.70